< < Back
Terminal Aerodrome Forecast


Current Version              Previous Versions:   1  2  3  4  5  6  7  8  9  

Terminal Aerodrome Forecast

686
FTUS44 KBMX 291132
TAFTCL
TAF
KTCL 291132Z 2912/3012 10005KT P6SM OVC007
      TEMPO 2912/2914 5SM BR SCT006 BKN012
     FM291400 13004KT P6SM BKN015
     FM291500 16004KT P6SM BKN250
     FM291700 16005KT P6SM VCTS BKN050CB
     FM300200 15002KT P6SM BKN100
      TEMPO 3010/3012 5SM BR=

Latest METAR

772
SAUS70 KWBC 291400 RRM
MTRTCL
METAR KTCL 291353Z 00000KT 9SM OVC009 22/19 A3018 RMK AO2 SLP218
T02220189


USA.gov is the U.S. government's official web portal to all federal, state and local government web resources and services.